createdAt,value
2023-03-14T05:14:49.128Z,19.67
2023-03-14T05:17:53.924Z,18.98
2023-03-14T05:20:56.575Z,16.87
2023-03-14T05:24:00.454Z,16.23
2023-03-14T05:27:06.004Z,20.00
2023-03-14T05:30:10.384Z,20.08
2023-03-14T05:33:14.291Z,15.18
2023-03-14T05:36:17.435Z,16.75
2023-03-14T05:39:20.515Z,16.83
2023-03-14T05:42:24.030Z,15.98
2023-03-14T05:45:27.137Z,17.45
2023-03-14T05:48:30.432Z,16.62
2023-03-14T05:51:33.503Z,17.08
2023-03-14T05:54:36.608Z,15.68
2023-03-14T05:57:39.785Z,15.88
2023-03-14T06:00:46.085Z,14.05
2023-03-14T06:03:49.854Z,16.77
2023-03-14T06:06:52.683Z,18.42
2023-03-14T06:09:56.529Z,15.93
2023-03-14T06:12:59.485Z,16.45
2023-03-14T06:16:02.352Z,16.45
2023-03-14T06:19:05.622Z,14.75
2023-03-14T06:22:08.925Z,13.98
2023-03-14T06:25:12.452Z,14.68
2023-03-14T06:28:16.419Z,13.40
2023-03-14T06:31:19.045Z,13.38
2023-03-14T06:34:23.084Z,13.38
2023-03-14T06:37:25.673Z,12.10
2023-03-14T06:40:31.443Z,13.00
2023-03-14T06:43:35.041Z,14.40
2023-03-14T06:46:38.547Z,14.57
2023-03-14T06:49:41.189Z,14.18
2023-03-14T06:52:48.888Z,13.40
2023-03-14T06:55:52.210Z,24.83
2023-03-14T06:58:55.485Z,16.50
2023-03-14T07:01:59.204Z,15.55
2023-03-14T07:05:04.828Z,13.85
2023-03-14T07:08:08.828Z,17.37
2023-03-14T07:11:12.331Z,13.20
2023-03-14T07:14:15.296Z,14.07
2023-03-14T07:17:18.484Z,16.12
2023-03-14T07:20:21.612Z,15.23
2023-03-14T07:23:24.997Z,13.88
2023-03-14T07:26:27.957Z,16.87
2023-03-14T07:29:31.209Z,17.15
2023-03-14T07:32:35.005Z,13.40
2023-03-14T07:35:38.427Z,13.10
2023-03-14T07:38:41.454Z,18.37
2023-03-14T07:41:44.857Z,18.17
2023-03-14T07:44:54.813Z,13.30
2023-03-14T07:47:58.614Z,12.63
2023-03-14T07:51:01.620Z,19.52
2023-03-14T07:54:04.649Z,13.93
2023-03-14T07:57:07.216Z,14.68
2023-03-14T08:00:13.713Z,12.50
2023-03-14T08:03:18.139Z,13.18
2023-03-14T08:06:21.118Z,18.92
2023-03-14T08:09:24.013Z,15.63
2023-03-14T08:12:26.973Z,14.32
2023-03-14T08:15:31.165Z,13.73
2023-03-14T08:18:34.545Z,16.77
2023-03-14T08:21:37.058Z,18.25
2023-03-14T08:24:40.327Z,18.17
2023-03-14T08:27:43.972Z,14.07
2023-03-14T08:30:47.983Z,12.80
2023-03-14T08:33:53.122Z,16.77
2023-03-14T08:36:57.821Z,13.40
2023-03-14T08:40:00.620Z,12.65
2023-03-14T08:43:03.697Z,16.87
2023-03-14T08:46:06.700Z,13.15
2023-03-14T08:49:09.656Z,15.40
2023-03-14T08:52:12.673Z,14.30
2023-03-14T08:55:15.660Z,15.32
2023-03-14T08:58:18.346Z,19.92
2023-03-14T09:01:25.123Z,16.70
2023-03-14T09:04:27.959Z,12.65
2023-03-14T09:07:31.138Z,13.88
2023-03-14T09:10:34.066Z,15.30
2023-03-14T09:13:37.281Z,11.95
2023-03-14T09:16:39.937Z,14.05
2023-03-14T09:19:42.955Z,10.63
2023-03-14T09:22:45.585Z,11.50
2023-03-14T09:25:48.553Z,9.00
2023-03-14T09:28:51.064Z,10.90
2023-03-14T09:31:54.194Z,10.63
2023-03-14T09:34:57.246Z,10.98
2023-03-14T09:38:00.092Z,10.98
2023-03-14T09:41:04.592Z,18.02
2023-03-14T09:44:17.249Z,8.45
2023-03-14T09:47:21.056Z,12.63
2023-03-14T09:50:24.906Z,10.68
2023-03-14T09:53:40.384Z,9.10
2023-03-14T09:56:43.168Z,7.75
2023-03-14T09:59:47.440Z,8.75
2023-03-14T10:02:54.950Z,10.55
2023-03-14T10:05:58.024Z,16.87
2023-03-14T10:09:00.599Z,9.77
2023-03-14T10:12:08.859Z,11.50
2023-03-14T10:15:18.853Z,12.43
2023-03-14T10:18:26.015Z,12.27
2023-03-14T10:21:31.171Z,13.32
2023-03-14T10:24:35.764Z,13.48
2023-03-14T10:27:38.313Z,13.45
2023-03-14T10:30:46.386Z,9.02
2023-03-14T10:34:04.117Z,6.87
2023-03-14T10:37:17.764Z,9.05
2023-03-14T10:40:28.450Z,5.40
2023-03-14T10:43:36.756Z,7.18
2023-03-14T10:46:39.873Z,3.65
2023-03-14T10:50:15.686Z,8.15
2023-03-14T10:53:19.735Z,8.00
2023-03-14T10:56:24.708Z,8.25
2023-03-14T10:59:37.750Z,6.00
2023-03-14T11:02:40.329Z,7.55
2023-03-14T11:06:07.942Z,6.10
2023-03-14T11:09:21.929Z,3.45
2023-03-14T11:12:43.302Z,6.07
2023-03-14T11:19:23.511Z,12.13
2023-03-14T11:22:51.712Z,5.62
2023-03-14T11:25:54.536Z,8.57
2023-03-14T11:29:14.184Z,4.97
2023-03-14T11:32:39.286Z,4.65
2023-03-14T11:35:54.211Z,6.10
2023-03-14T11:38:59.143Z,3.00
2023-03-14T11:42:04.704Z,5.68
2023-03-14T11:45:20.057Z,5.25
2023-03-14T11:48:37.956Z,5.70
2023-03-14T11:51:45.538Z,4.72
2023-03-14T11:54:55.043Z,5.57
2023-03-14T11:58:02.877Z,9.83
2023-03-14T12:01:12.269Z,11.85
2023-03-14T12:04:38.296Z,4.57
2023-03-14T12:07:47.718Z,4.85
2023-03-14T12:10:54.665Z,2.90
2023-03-14T12:13:57.249Z,3.22
2023-03-14T12:17:19.684Z,4.43
2023-03-14T12:20:25.614Z,3.27
2023-03-14T12:23:35.345Z,5.47
2023-03-14T12:27:02.458Z,4.50
2023-03-14T12:30:18.525Z,1.70
2023-03-14T12:33:32.267Z,2.67
2023-03-14T12:37:10.458Z,6.18
2023-03-14T12:40:33.743Z,6.53
2023-03-14T12:43:38.268Z,3.83
2023-03-14T12:46:40.931Z,4.95
2023-03-14T12:49:44.580Z,6.62
2023-03-14T12:53:08.880Z,4.82
2023-03-14T12:56:20.685Z,8.40
2023-03-14T12:59:29.259Z,2.65
2023-03-14T13:02:46.009Z,4.82
2023-03-14T13:06:04.270Z,6.47
2023-03-14T13:09:30.523Z,3.55
2023-03-14T13:12:41.195Z,3.60
2023-03-14T13:15:47.514Z,4.35
2023-03-14T13:18:59.813Z,4.60
2023-03-14T13:22:06.313Z,3.83
2023-03-14T13:25:11.734Z,4.25
2023-03-14T13:28:15.568Z,4.28
2023-03-14T13:31:25.632Z,12.65
2023-03-14T13:34:34.304Z,4.15
2023-03-14T13:37:40.703Z,3.45
2023-03-14T13:40:46.152Z,5.05
2023-03-14T13:43:49.500Z,5.40
2023-03-14T13:46:52.440Z,3.92
2023-03-14T13:49:58.709Z,5.20
2023-03-14T13:53:03.853Z,3.67
2023-03-14T13:56:10.909Z,5.22
2023-03-14T13:59:26.994Z,4.70
2023-03-14T14:02:31.359Z,4.90
2023-03-14T14:05:38.530Z,2.58
2023-03-14T14:08:42.965Z,4.50
2023-03-14T14:12:16.834Z,2.53
2023-03-14T14:15:27.287Z,3.83
2023-03-14T14:18:33.421Z,3.83
2023-03-14T14:21:36.340Z,4.07
2023-03-14T14:24:40.526Z,6.05
2023-03-14T14:27:49.470Z,3.30
2023-03-14T14:31:19.466Z,2.72
2023-03-14T14:34:22.111Z,5.65
2023-03-14T14:37:30.652Z,5.82
2023-03-14T14:40:34.661Z,4.18
2023-03-14T14:43:41.303Z,5.75
2023-03-14T14:46:44.119Z,5.70
2023-03-14T14:49:48.796Z,7.70
2023-03-14T14:53:00.928Z,5.30
2023-03-14T14:56:26.434Z,8.35
2023-03-14T14:59:32.590Z,5.30
2023-03-14T15:02:46.613Z,5.53
2023-03-14T15:05:49.412Z,8.68
2023-03-14T15:08:55.701Z,4.97
2023-03-14T15:11:58.246Z,5.35
2023-03-14T15:15:00.988Z,11.12
2023-03-14T15:18:03.684Z,9.23
2023-03-14T15:21:06.525Z,10.02
2023-03-14T15:24:10.837Z,8.82
2023-03-14T15:27:16.207Z,6.68
2023-03-14T15:30:19.492Z,11.15
2023-03-14T15:33:26.953Z,11.12
2023-03-14T15:36:33.058Z,9.93
2023-03-14T15:39:36.289Z,12.82
2023-03-14T15:42:38.938Z,7.80
2023-03-14T15:45:42.641Z,12.05
2023-03-14T15:48:46.544Z,11.60
2023-03-14T15:51:49.925Z,7.03
2023-03-14T15:54:52.472Z,4.85
2023-03-14T15:57:55.369Z,7.95
2023-03-14T16:00:58.026Z,5.37
2023-03-14T16:04:03.174Z,2.90
2023-03-14T16:07:05.763Z,5.18
2023-03-14T16:10:12.348Z,5.20
2023-03-14T16:13:15.754Z,3.62
2023-03-14T16:16:18.653Z,4.00
2023-03-14T16:19:21.360Z,5.50
